sensor_id;sensor_type;location;lat;lon;timestamp;P1;durP1;ratioP1;P2;durP2;ratioP2
44446;SDS011;30152;52.066;5.358;2024-01-11T07:52:59;77.25;;;35.85;;
44446;SDS011;30152;52.066;5.358;2024-01-11T07:55:26;77.60;;;36.07;;
44446;SDS011;30152;52.066;5.358;2024-01-11T07:57:52;73.63;;;35.17;;
44446;SDS011;30152;52.066;5.358;2024-01-11T08:00:18;73.00;;;36.28;;
44446;SDS011;30152;52.066;5.358;2024-01-11T08:02:44;72.13;;;35.20;;
44446;SDS011;30152;52.066;5.358;2024-01-11T08:05:10;72.82;;;35.55;;
44446;SDS011;30152;52.066;5.358;2024-01-11T08:07:36;76.53;;;35.60;;
44446;SDS011;30152;52.066;5.358;2024-01-11T08:10:02;76.07;;;36.20;;
44446;SDS011;30152;52.066;5.358;2024-01-11T08:12:29;74.30;;;36.92;;
44446;SDS011;30152;52.066;5.358;2024-01-11T08:14:56;72.30;;;35.00;;
44446;SDS011;30152;52.066;5.358;2024-01-11T08:17:22;73.97;;;36.30;;
44446;SDS011;30152;52.066;5.358;2024-01-11T08:19:48;72.00;;;35.33;;
44446;SDS011;30152;52.066;5.358;2024-01-11T08:22:14;73.50;;;35.55;;
44446;SDS011;30152;52.066;5.358;2024-01-11T08:24:40;73.43;;;35.60;;
44446;SDS011;30152;52.066;5.358;2024-01-11T08:27:06;74.60;;;35.58;;
44446;SDS011;30152;52.066;5.358;2024-01-11T08:29:32;73.45;;;35.20;;
44446;SDS011;30152;52.066;5.358;2024-01-11T08:31:58;75.35;;;35.10;;
44446;SDS011;30152;52.066;5.358;2024-01-11T08:34:26;76.47;;;37.72;;
44446;SDS011;30152;52.066;5.358;2024-01-11T08:36:52;74.40;;;36.25;;
44446;SDS011;30152;52.066;5.358;2024-01-11T08:39:18;74.53;;;36.27;;
44446;SDS011;30152;52.066;5.358;2024-01-11T08:41:47;68.63;;;35.03;;
44446;SDS011;30152;52.066;5.358;2024-01-11T08:44:13;72.20;;;36.22;;
44446;SDS011;30152;52.066;5.358;2024-01-11T08:46:39;70.82;;;35.63;;
44446;SDS011;30152;52.066;5.358;2024-01-11T08:49:05;64.35;;;34.60;;
44446;SDS011;30152;52.066;5.358;2024-01-11T08:51:31;70.40;;;35.40;;
44446;SDS011;30152;52.066;5.358;2024-01-11T08:53:57;73.13;;;37.63;;
44446;SDS011;30152;52.066;5.358;2024-01-11T08:56:23;77.93;;;37.67;;
44446;SDS011;30152;52.066;5.358;2024-01-11T08:58:49;66.47;;;35.03;;
44446;SDS011;30152;52.066;5.358;2024-01-11T09:01:15;60.85;;;32.65;;
44446;SDS011;30152;52.066;5.358;2024-01-11T09:03:44;72.13;;;33.50;;
44446;SDS011;30152;52.066;5.358;2024-01-11T09:06:10;66.93;;;33.85;;
44446;SDS011;30152;52.066;5.358;2024-01-11T09:08:36;65.43;;;34.20;;
44446;SDS011;30152;52.066;5.358;2024-01-11T09:11:02;63.10;;;33.72;;
44446;SDS011;30152;52.066;5.358;2024-01-11T09:13:28;59.92;;;31.17;;
44446;SDS011;30152;52.066;5.358;2024-01-11T09:15:54;63.83;;;33.42;;
44446;SDS011;30152;52.066;5.358;2024-01-11T09:18:20;63.22;;;33.22;;
44446;SDS011;30152;52.066;5.358;2024-01-11T09:20:47;55.78;;;29.30;;
44446;SDS011;30152;52.066;5.358;2024-01-11T09:23:13;58.53;;;31.30;;
44446;SDS011;30152;52.066;5.358;2024-01-11T09:25:40;60.20;;;32.03;;
44446;SDS011;30152;52.066;5.358;2024-01-11T09:28:06;58.42;;;32.20;;
44446;SDS011;30152;52.066;5.358;2024-01-11T09:30:34;59.50;;;31.95;;
44446;SDS011;30152;52.066;5.358;2024-01-11T09:33:00;59.58;;;30.83;;
44446;SDS011;30152;52.066;5.358;2024-01-11T09:35:26;58.53;;;30.27;;
44446;SDS011;30152;52.066;5.358;2024-01-11T09:37:52;60.53;;;31.20;;
44446;SDS011;30152;52.066;5.358;2024-01-11T09:40:18;59.75;;;31.20;;
44446;SDS011;30152;52.066;5.358;2024-01-11T09:42:44;56.85;;;29.77;;
44446;SDS011;30152;52.066;5.358;2024-01-11T09:45:12;58.67;;;30.65;;
44446;SDS011;30152;52.066;5.358;2024-01-11T09:47:39;61.25;;;29.25;;
44446;SDS011;30152;52.066;5.358;2024-01-11T09:50:05;60.30;;;30.38;;
44446;SDS011;30152;52.066;5.358;2024-01-11T09:52:32;59.65;;;28.00;;
44446;SDS011;30152;52.066;5.358;2024-01-11T09:54:58;59.70;;;27.83;;
44446;SDS011;30152;52.066;5.358;2024-01-11T09:57:26;58.67;;;28.00;;
44446;SDS011;30152;52.066;5.358;2024-01-11T09:59:54;63.07;;;29.80;;
44446;SDS011;30152;52.066;5.358;2024-01-11T10:02:21;62.47;;;28.38;;
44446;SDS011;30152;52.066;5.358;2024-01-11T10:04:48;60.83;;;28.45;;
44446;SDS011;30152;52.066;5.358;2024-01-11T10:07:17;67.65;;;29.90;;
44446;SDS011;30152;52.066;5.358;2024-01-11T10:09:45;70.03;;;30.20;;
44446;SDS011;30152;52.066;5.358;2024-01-11T10:12:11;72.50;;;30.67;;
44446;SDS011;30152;52.066;5.358;2024-01-11T10:14:37;68.80;;;30.05;;
44446;SDS011;30152;52.066;5.358;2024-01-11T10:17:04;67.15;;;29.92;;
44446;SDS011;30152;52.066;5.358;2024-01-11T10:19:30;74.45;;;30.95;;
44446;SDS011;30152;52.066;5.358;2024-01-11T10:21:56;71.55;;;30.17;;
44446;SDS011;30152;52.066;5.358;2024-01-11T10:24:23;71.85;;;29.60;;
44446;SDS011;30152;52.066;5.358;2024-01-11T10:26:51;70.82;;;29.02;;
44446;SDS011;30152;52.066;5.358;2024-01-11T10:29:17;73.07;;;30.23;;
44446;SDS011;30152;52.066;5.358;2024-01-11T10:31:43;75.85;;;30.10;;
44446;SDS011;30152;52.066;5.358;2024-01-11T10:34:09;67.18;;;27.25;;
44446;SDS011;30152;52.066;5.358;2024-01-11T10:36:35;64.10;;;26.77;;
44446;SDS011;30152;52.066;5.358;2024-01-11T10:39:02;65.10;;;26.25;;
44446;SDS011;30152;52.066;5.358;2024-01-11T10:41:35;64.22;;;27.27;;
44446;SDS011;30152;52.066;5.358;2024-01-11T10:44:05;69.28;;;27.40;;
44446;SDS011;30152;52.066;5.358;2024-01-11T10:46:34;66.28;;;26.98;;
44446;SDS011;30152;52.066;5.358;2024-01-11T10:49:01;74.32;;;27.63;;
44446;SDS011;30152;52.066;5.358;2024-01-11T10:51:28;74.93;;;29.23;;
44446;SDS011;30152;52.066;5.358;2024-01-11T10:53:57;70.35;;;28.05;;
44446;SDS011;30152;52.066;5.358;2024-01-11T10:56:24;74.53;;;28.98;;
44446;SDS011;30152;52.066;5.358;2024-01-11T10:58:51;78.68;;;30.27;;
44446;SDS011;30152;52.066;5.358;2024-01-11T11:01:19;80.65;;;33.00;;
44446;SDS011;30152;52.066;5.358;2024-01-11T11:03:45;93.90;;;35.22;;
44446;SDS011;30152;52.066;5.358;2024-01-11T11:06:12;77.07;;;31.85;;
44446;SDS011;30152;52.066;5.358;2024-01-11T11:08:39;74.70;;;29.83;;
44446;SDS011;30152;52.066;5.358;2024-01-11T11:11:05;72.03;;;28.03;;
44446;SDS011;30152;52.066;5.358;2024-01-11T11:13:31;68.60;;;27.97;;
44446;SDS011;30152;52.066;5.358;2024-01-11T11:15:59;68.13;;;26.77;;
44446;SDS011;30152;52.066;5.358;2024-01-11T11:18:27;68.57;;;27.33;;
44446;SDS011;30152;52.066;5.358;2024-01-11T11:20:53;66.35;;;26.42;;
44446;SDS011;30152;52.066;5.358;2024-01-11T11:23:19;66.68;;;26.80;;
44446;SDS011;30152;52.066;5.358;2024-01-11T11:25:46;67.60;;;27.90;;
44446;SDS011;30152;52.066;5.358;2024-01-11T11:28:12;68.63;;;26.80;;
44446;SDS011;30152;52.066;5.358;2024-01-11T11:30:40;61.05;;;25.90;;
44446;SDS011;30152;52.066;5.358;2024-01-11T11:33:20;74.28;;;31.45;;
44446;SDS011;30152;52.066;5.358;2024-01-11T11:35:47;70.47;;;29.73;;
44446;SDS011;30152;52.066;5.358;2024-01-11T11:38:20;69.05;;;28.42;;
44446;SDS011;30152;52.066;5.358;2024-01-11T11:40:47;66.30;;;27.92;;
44446;SDS011;30152;52.066;5.358;2024-01-11T11:43:15;65.80;;;26.65;;
44446;SDS011;30152;52.066;5.358;2024-01-11T11:45:42;67.07;;;26.70;;
44446;SDS011;30152;52.066;5.358;2024-01-11T11:51:11;62.15;;;26.40;;
44446;SDS011;30152;52.066;5.358;2024-01-11T11:53:37;65.18;;;25.90;;
44446;SDS011;30152;52.066;5.358;2024-01-11T11:56:04;58.23;;;24.93;;
44446;SDS011;30152;52.066;5.358;2024-01-11T11:58:32;62.10;;;25.60;;
44446;SDS011;30152;52.066;5.358;2024-01-11T12:00:59;55.15;;;24.45;;
44446;SDS011;30152;52.066;5.358;2024-01-11T12:03:29;58.97;;;25.25;;
44446;SDS011;30152;52.066;5.358;2024-01-11T12:05:56;55.28;;;24.75;;
44446;SDS011;30152;52.066;5.358;2024-01-11T12:08:22;61.25;;;24.95;;
44446;SDS011;30152;52.066;5.358;2024-01-11T12:10:48;59.90;;;25.00;;
44446;SDS011;30152;52.066;5.358;2024-01-11T12:13:14;56.90;;;24.83;;
44446;SDS011;30152;52.066;5.358;2024-01-11T12:15:40;55.97;;;24.23;;
44446;SDS011;30152;52.066;5.358;2024-01-11T12:18:06;60.53;;;24.97;;
44446;SDS011;30152;52.066;5.358;2024-01-11T12:20:32;57.10;;;24.13;;
44446;SDS011;30152;52.066;5.358;2024-01-11T12:22:58;56.97;;;23.58;;
44446;SDS011;30152;52.066;5.358;2024-01-11T12:25:24;52.65;;;23.70;;
44446;SDS011;30152;52.066;5.358;2024-01-11T12:27:50;57.65;;;25.23;;
44446;SDS011;30152;52.066;5.358;2024-01-11T12:30:16;55.37;;;24.63;;
44446;SDS011;30152;52.066;5.358;2024-01-11T12:32:43;52.97;;;23.70;;
44446;SDS011;30152;52.066;5.358;2024-01-11T12:35:09;48.55;;;22.27;;
44446;SDS011;30152;52.066;5.358;2024-01-11T12:37:35;50.67;;;22.73;;
44446;SDS011;30152;52.066;5.358;2024-01-11T12:40:01;49.97;;;22.67;;
44446;SDS011;30152;52.066;5.358;2024-01-11T12:42:28;47.45;;;21.80;;
44446;SDS011;30152;52.066;5.358;2024-01-11T12:44:54;46.03;;;21.20;;
44446;SDS011;30152;52.066;5.358;2024-01-11T12:47:20;47.47;;;21.08;;
44446;SDS011;30152;52.066;5.358;2024-01-11T12:49:46;45.30;;;22.33;;
44446;SDS011;30152;52.066;5.358;2024-01-11T12:52:16;44.92;;;20.45;;
44446;SDS011;30152;52.066;5.358;2024-01-11T12:54:43;43.80;;;21.05;;
44446;SDS011;30152;52.066;5.358;2024-01-11T12:57:18;44.55;;;20.10;;
44446;SDS011;30152;52.066;5.358;2024-01-11T12:59:47;43.92;;;21.40;;
44446;SDS011;30152;52.066;5.358;2024-01-11T13:02:14;40.72;;;20.27;;
44446;SDS011;30152;52.066;5.358;2024-01-11T13:04:44;46.47;;;21.67;;
44446;SDS011;30152;52.066;5.358;2024-01-11T13:07:11;47.90;;;21.83;;
44446;SDS011;30152;52.066;5.358;2024-01-11T13:09:37;44.05;;;20.75;;
44446;SDS011;30152;52.066;5.358;2024-01-11T13:12:03;43.95;;;20.00;;
44446;SDS011;30152;52.066;5.358;2024-01-11T13:14:29;41.15;;;20.13;;
44446;SDS011;30152;52.066;5.358;2024-01-11T13:16:56;44.15;;;19.98;;
44446;SDS011;30152;52.066;5.358;2024-01-11T13:19:22;42.92;;;20.17;;
44446;SDS011;30152;52.066;5.358;2024-01-11T13:21:48;43.30;;;19.43;;
44446;SDS011;30152;52.066;5.358;2024-01-11T13:24:14;39.85;;;19.00;;
44446;SDS011;30152;52.066;5.358;2024-01-11T13:26:40;41.57;;;19.17;;
44446;SDS011;30152;52.066;5.358;2024-01-11T13:29:05;42.10;;;19.35;;
44446;SDS011;30152;52.066;5.358;2024-01-11T13:31:32;41.80;;;18.70;;
44446;SDS011;30152;52.066;5.358;2024-01-11T13:33:58;37.55;;;18.20;;
44446;SDS011;30152;52.066;5.358;2024-01-11T13:36:24;33.88;;;17.10;;
44446;SDS011;30152;52.066;5.358;2024-01-11T13:38:50;37.55;;;17.58;;
44446;SDS011;30152;52.066;5.358;2024-01-11T13:41:17;35.60;;;17.70;;
44446;SDS011;30152;52.066;5.358;2024-01-11T13:43:43;37.47;;;17.42;;
44446;SDS011;30152;52.066;5.358;2024-01-11T13:46:09;34.97;;;17.33;;
44446;SDS011;30152;52.066;5.358;2024-01-11T13:48:36;38.55;;;18.67;;
44446;SDS011;30152;52.066;5.358;2024-01-11T13:51:03;37.70;;;18.92;;
44446;SDS011;30152;52.066;5.358;2024-01-11T13:53:29;39.25;;;17.75;;
44446;SDS011;30152;52.066;5.358;2024-01-11T13:55:55;38.88;;;18.77;;
44446;SDS011;30152;52.066;5.358;2024-01-11T13:58:21;38.28;;;18.67;;
44446;SDS011;30152;52.066;5.358;2024-01-11T14:00:48;39.35;;;19.25;;
44446;SDS011;30152;52.066;5.358;2024-01-11T14:03:14;38.85;;;19.00;;
44446;SDS011;30152;52.066;5.358;2024-01-11T14:05:41;37.88;;;19.40;;
44446;SDS011;30152;52.066;5.358;2024-01-11T14:08:06;46.57;;;20.03;;
44446;SDS011;30152;52.066;5.358;2024-01-11T14:10:33;41.85;;;20.17;;
44446;SDS011;30152;52.066;5.358;2024-01-11T14:13:02;39.95;;;19.33;;
44446;SDS011;30152;52.066;5.358;2024-01-11T14:15:28;40.58;;;20.10;;
44446;SDS011;30152;52.066;5.358;2024-01-11T14:17:54;39.57;;;18.97;;
44446;SDS011;30152;52.066;5.358;2024-01-11T14:20:20;39.30;;;19.13;;
44446;SDS011;30152;52.066;5.358;2024-01-11T14:22:46;36.93;;;18.63;;
44446;SDS011;30152;52.066;5.358;2024-01-11T14:25:20;39.00;;;18.77;;
44446;SDS011;30152;52.066;5.358;2024-01-11T14:27:47;38.72;;;18.95;;
44446;SDS011;30152;52.066;5.358;2024-01-11T14:30:13;39.05;;;18.88;;
44446;SDS011;30152;52.066;5.358;2024-01-11T14:32:39;40.05;;;18.95;;
44446;SDS011;30152;52.066;5.358;2024-01-11T14:35:09;42.00;;;19.30;;
44446;SDS011;30152;52.066;5.358;2024-01-11T14:37:35;41.05;;;20.42;;
44446;SDS011;30152;52.066;5.358;2024-01-11T14:40:02;43.70;;;20.38;;
44446;SDS011;30152;52.066;5.358;2024-01-11T14:42:29;38.78;;;18.83;;
44446;SDS011;30152;52.066;5.358;2024-01-11T14:44:54;38.23;;;18.80;;
44446;SDS011;30152;52.066;5.358;2024-01-11T14:47:21;41.47;;;19.17;;
44446;SDS011;30152;52.066;5.358;2024-01-11T14:49:47;39.38;;;19.15;;
44446;SDS011;30152;52.066;5.358;2024-01-11T14:52:13;36.55;;;19.48;;
44446;SDS011;30152;52.066;5.358;2024-01-11T14:54:39;40.70;;;19.55;;
44446;SDS011;30152;52.066;5.358;2024-01-11T14:57:05;37.92;;;19.27;;
44446;SDS011;30152;52.066;5.358;2024-01-11T14:59:31;40.45;;;19.70;;
44446;SDS011;30152;52.066;5.358;2024-01-11T15:01:57;39.78;;;19.02;;
44446;SDS011;30152;52.066;5.358;2024-01-11T15:04:24;40.92;;;19.95;;
44446;SDS011;30152;52.066;5.358;2024-01-11T15:06:50;41.13;;;19.17;;
44446;SDS011;30152;52.066;5.358;2024-01-11T15:09:16;40.33;;;19.25;;
44446;SDS011;30152;52.066;5.358;2024-01-11T15:11:42;40.88;;;19.77;;
44446;SDS011;30152;52.066;5.358;2024-01-11T15:14:07;44.60;;;19.20;;
44446;SDS011;30152;52.066;5.358;2024-01-11T15:16:38;39.75;;;19.90;;
44446;SDS011;30152;52.066;5.358;2024-01-11T15:19:05;43.58;;;20.73;;
44446;SDS011;30152;52.066;5.358;2024-01-11T15:21:31;44.65;;;20.73;;
44446;SDS011;30152;52.066;5.358;2024-01-11T15:23:57;48.92;;;21.33;;
44446;SDS011;30152;52.066;5.358;2024-01-11T15:26:24;43.03;;;19.90;;
44446;SDS011;30152;52.066;5.358;2024-01-11T15:28:51;44.80;;;20.17;;
44446;SDS011;30152;52.066;5.358;2024-01-11T15:31:17;44.30;;;19.87;;
44446;SDS011;30152;52.066;5.358;2024-01-11T15:33:43;43.92;;;21.17;;
44446;SDS011;30152;52.066;5.358;2024-01-11T15:36:10;46.00;;;20.45;;
44446;SDS011;30152;52.066;5.358;2024-01-11T15:38:36;44.45;;;21.38;;
44446;SDS011;30152;52.066;5.358;2024-01-11T15:41:02;45.60;;;20.88;;
44446;SDS011;30152;52.066;5.358;2024-01-11T15:43:29;46.83;;;21.83;;
44446;SDS011;30152;52.066;5.358;2024-01-11T15:45:55;45.95;;;20.77;;
44446;SDS011;30152;52.066;5.358;2024-01-11T15:48:21;47.42;;;21.05;;
44446;SDS011;30152;52.066;5.358;2024-01-11T15:50:47;44.77;;;21.53;;
44446;SDS011;30152;52.066;5.358;2024-01-11T15:53:13;46.25;;;21.70;;
44446;SDS011;30152;52.066;5.358;2024-01-11T15:55:39;44.10;;;21.27;;
44446;SDS011;30152;52.066;5.358;2024-01-11T15:58:05;46.73;;;23.07;;
44446;SDS011;30152;52.066;5.358;2024-01-11T16:00:31;49.17;;;22.50;;
44446;SDS011;30152;52.066;5.358;2024-01-11T16:02:57;43.75;;;22.17;;
44446;SDS011;30152;52.066;5.358;2024-01-11T16:05:22;48.87;;;23.13;;
44446;SDS011;30152;52.066;5.358;2024-01-11T16:07:49;46.80;;;23.42;;
44446;SDS011;30152;52.066;5.358;2024-01-11T16:10:15;49.10;;;22.83;;
44446;SDS011;30152;52.066;5.358;2024-01-11T16:12:41;50.90;;;24.40;;
44446;SDS011;30152;52.066;5.358;2024-01-11T16:15:07;46.80;;;22.60;;
44446;SDS011;30152;52.066;5.358;2024-01-11T16:17:33;49.33;;;23.75;;
44446;SDS011;30152;52.066;5.358;2024-01-11T16:19:58;51.22;;;24.45;;
44446;SDS011;30152;52.066;5.358;2024-01-11T16:22:24;49.35;;;23.77;;
44446;SDS011;30152;52.066;5.358;2024-01-11T16:24:50;47.63;;;23.13;;
44446;SDS011;30152;52.066;5.358;2024-01-11T16:27:16;48.87;;;23.90;;
44446;SDS011;30152;52.066;5.358;2024-01-11T16:29:41;49.58;;;23.23;;
44446;SDS011;30152;52.066;5.358;2024-01-11T16:32:07;52.13;;;26.20;;
44446;SDS011;30152;52.066;5.358;2024-01-11T16:34:35;53.58;;;24.55;;
44446;SDS011;30152;52.066;5.358;2024-01-11T16:37:01;54.75;;;25.00;;
44446;SDS011;30152;52.066;5.358;2024-01-11T16:39:27;49.72;;;24.00;;
44446;SDS011;30152;52.066;5.358;2024-01-11T16:41:53;52.10;;;25.42;;
44446;SDS011;30152;52.066;5.358;2024-01-11T16:44:19;52.42;;;25.17;;
44446;SDS011;30152;52.066;5.358;2024-01-11T16:46:45;49.53;;;24.90;;
44446;SDS011;30152;52.066;5.358;2024-01-11T16:49:11;50.60;;;24.75;;
44446;SDS011;30152;52.066;5.358;2024-01-11T16:51:41;52.60;;;25.45;;
44446;SDS011;30152;52.066;5.358;2024-01-11T16:54:07;52.20;;;25.27;;
44446;SDS011;30152;52.066;5.358;2024-01-11T16:56:33;49.20;;;25.13;;
44446;SDS011;30152;52.066;5.358;2024-01-11T16:58:59;53.37;;;26.73;;
44446;SDS011;30152;52.066;5.358;2024-01-11T17:01:24;55.28;;;27.08;;
44446;SDS011;30152;52.066;5.358;2024-01-11T17:03:50;54.15;;;27.52;;
44446;SDS011;30152;52.066;5.358;2024-01-11T17:06:16;58.60;;;28.25;;
44446;SDS011;30152;52.066;5.358;2024-01-11T17:08:44;55.72;;;28.00;;
44446;SDS011;30152;52.066;5.358;2024-01-11T17:11:10;56.75;;;28.60;;
44446;SDS011;30152;52.066;5.358;2024-01-11T17:13:36;59.90;;;29.40;;
44446;SDS011;30152;52.066;5.358;2024-01-11T17:16:02;59.38;;;28.83;;
44446;SDS011;30152;52.066;5.358;2024-01-11T17:18:31;59.88;;;29.20;;
44446;SDS011;30152;52.066;5.358;2024-01-11T17:20:57;58.40;;;29.38;;
44446;SDS011;30152;52.066;5.358;2024-01-11T17:23:23;55.03;;;28.13;;
44446;SDS011;30152;52.066;5.358;2024-01-11T17:25:49;53.78;;;27.95;;
44446;SDS011;30152;52.066;5.358;2024-01-11T17:28:15;57.38;;;28.75;;
44446;SDS011;30152;52.066;5.358;2024-01-11T17:30:41;56.10;;;28.35;;
44446;SDS011;30152;52.066;5.358;2024-01-11T17:33:07;58.83;;;30.05;;
44446;SDS011;30152;52.066;5.358;2024-01-11T17:35:34;56.47;;;28.23;;
44446;SDS011;30152;52.066;5.358;2024-01-11T17:38:00;55.80;;;28.90;;
44446;SDS011;30152;52.066;5.358;2024-01-11T17:40:25;53.57;;;28.40;;
44446;SDS011;30152;52.066;5.358;2024-01-11T17:42:57;55.72;;;28.92;;
44446;SDS011;30152;52.066;5.358;2024-01-11T17:45:23;55.73;;;27.40;;
44446;SDS011;30152;52.066;5.358;2024-01-11T17:47:50;54.30;;;28.45;;
44446;SDS011;30152;52.066;5.358;2024-01-11T17:50:16;55.97;;;29.33;;
44446;SDS011;30152;52.066;5.358;2024-01-11T17:52:42;57.00;;;27.92;;
44446;SDS011;30152;52.066;5.358;2024-01-11T17:55:08;56.05;;;28.48;;
44446;SDS011;30152;52.066;5.358;2024-01-11T17:57:34;53.93;;;28.47;;
44446;SDS011;30152;52.066;5.358;2024-01-11T18:00:03;52.92;;;27.98;;
44446;SDS011;30152;52.066;5.358;2024-01-11T18:02:29;54.38;;;28.67;;
44446;SDS011;30152;52.066;5.358;2024-01-11T18:04:55;59.93;;;30.17;;
44446;SDS011;30152;52.066;5.358;2024-01-11T18:07:21;56.00;;;28.73;;
44446;SDS011;30152;52.066;5.358;2024-01-11T18:09:48;58.58;;;29.98;;
44446;SDS011;30152;52.066;5.358;2024-01-11T18:12:14;54.78;;;28.55;;
44446;SDS011;30152;52.066;5.358;2024-01-11T18:14:40;53.93;;;28.80;;
44446;SDS011;30152;52.066;5.358;2024-01-11T18:17:06;54.88;;;29.33;;
44446;SDS011;30152;52.066;5.358;2024-01-11T18:19:33;54.03;;;28.02;;
44446;SDS011;30152;52.066;5.358;2024-01-11T18:21:58;54.35;;;28.48;;
44446;SDS011;30152;52.066;5.358;2024-01-11T18:24:24;59.03;;;29.25;;
44446;SDS011;30152;52.066;5.358;2024-01-11T18:26:50;55.40;;;29.25;;
44446;SDS011;30152;52.066;5.358;2024-01-11T18:29:16;58.45;;;29.42;;
44446;SDS011;30152;52.066;5.358;2024-01-11T18:31:42;54.67;;;28.92;;
44446;SDS011;30152;52.066;5.358;2024-01-11T18:34:08;54.22;;;28.13;;
44446;SDS011;30152;52.066;5.358;2024-01-11T18:36:44;54.08;;;28.80;;
44446;SDS011;30152;52.066;5.358;2024-01-11T18:39:10;50.95;;;28.20;;
44446;SDS011;30152;52.066;5.358;2024-01-11T18:41:37;54.22;;;27.80;;
44446;SDS011;30152;52.066;5.358;2024-01-11T18:44:03;56.08;;;29.10;;
44446;SDS011;30152;52.066;5.358;2024-01-11T18:46:29;52.72;;;28.33;;
44446;SDS011;30152;52.066;5.358;2024-01-11T18:48:55;55.80;;;28.95;;
44446;SDS011;30152;52.066;5.358;2024-01-11T18:51:21;53.80;;;28.13;;
44446;SDS011;30152;52.066;5.358;2024-01-11T18:53:47;51.90;;;28.95;;
44446;SDS011;30152;52.066;5.358;2024-01-11T18:56:14;50.50;;;27.35;;
44446;SDS011;30152;52.066;5.358;2024-01-11T18:58:40;56.05;;;27.42;;
44446;SDS011;30152;52.066;5.358;2024-01-11T19:01:06;50.90;;;27.63;;
44446;SDS011;30152;52.066;5.358;2024-01-11T19:03:33;51.80;;;27.95;;
44446;SDS011;30152;52.066;5.358;2024-01-11T19:05:59;53.85;;;28.25;;
44446;SDS011;30152;52.066;5.358;2024-01-11T19:08:24;53.50;;;28.65;;
44446;SDS011;30152;52.066;5.358;2024-01-11T19:10:53;51.15;;;28.20;;
44446;SDS011;30152;52.066;5.358;2024-01-11T19:13:19;52.17;;;28.75;;
44446;SDS011;30152;52.066;5.358;2024-01-11T19:15:45;53.65;;;29.52;;
44446;SDS011;30152;52.066;5.358;2024-01-11T19:18:13;56.83;;;29.65;;
44446;SDS011;30152;52.066;5.358;2024-01-11T19:20:39;53.38;;;28.80;;
44446;SDS011;30152;52.066;5.358;2024-01-11T19:23:05;52.50;;;28.58;;
44446;SDS011;30152;52.066;5.358;2024-01-11T19:25:31;50.95;;;28.92;;
44446;SDS011;30152;52.066;5.358;2024-01-11T19:27:58;55.63;;;29.80;;
44446;SDS011;30152;52.066;5.358;2024-01-11T19:30:26;55.97;;;29.60;;
44446;SDS011;30152;52.066;5.358;2024-01-11T19:32:52;51.55;;;27.75;;
44446;SDS011;30152;52.066;5.358;2024-01-11T19:35:18;50.08;;;27.90;;
44446;SDS011;30152;52.066;5.358;2024-01-11T19:37:44;50.63;;;28.00;;
44446;SDS011;30152;52.066;5.358;2024-01-11T19:40:10;47.60;;;26.92;;
44446;SDS011;30152;52.066;5.358;2024-01-11T19:42:36;51.67;;;28.42;;
44446;SDS011;30152;52.066;5.358;2024-01-11T19:45:02;50.53;;;27.55;;
44446;SDS011;30152;52.066;5.358;2024-01-11T19:47:28;46.90;;;26.48;;
44446;SDS011;30152;52.066;5.358;2024-01-11T19:49:54;49.00;;;26.13;;
44446;SDS011;30152;52.066;5.358;2024-01-11T19:52:20;45.42;;;25.38;;
44446;SDS011;30152;52.066;5.358;2024-01-11T19:54:46;50.10;;;26.98;;
44446;SDS011;30152;52.066;5.358;2024-01-11T19:57:13;47.92;;;27.23;;
44446;SDS011;30152;52.066;5.358;2024-01-11T19:59:39;49.58;;;26.58;;
44446;SDS011;30152;52.066;5.358;2024-01-11T20:02:06;50.55;;;27.98;;
44446;SDS011;30152;52.066;5.358;2024-01-11T20:04:32;51.60;;;27.35;;
44446;SDS011;30152;52.066;5.358;2024-01-11T20:06:59;53.10;;;28.33;;
44446;SDS011;30152;52.066;5.358;2024-01-11T20:09:25;50.58;;;28.83;;
44446;SDS011;30152;52.066;5.358;2024-01-11T20:11:51;52.53;;;28.70;;
44446;SDS011;30152;52.066;5.358;2024-01-11T20:14:16;50.37;;;27.43;;
44446;SDS011;30152;52.066;5.358;2024-01-11T20:16:43;51.00;;;28.10;;
44446;SDS011;30152;52.066;5.358;2024-01-11T20:19:09;51.17;;;27.30;;
44446;SDS011;30152;52.066;5.358;2024-01-11T20:21:35;50.87;;;28.40;;
44446;SDS011;30152;52.066;5.358;2024-01-11T20:24:00;52.57;;;28.47;;
44446;SDS011;30152;52.066;5.358;2024-01-11T20:26:26;49.97;;;26.87;;
44446;SDS011;30152;52.066;5.358;2024-01-11T20:28:52;49.80;;;26.30;;
44446;SDS011;30152;52.066;5.358;2024-01-11T20:31:18;47.87;;;26.03;;
44446;SDS011;30152;52.066;5.358;2024-01-11T20:33:45;49.25;;;25.98;;
44446;SDS011;30152;52.066;5.358;2024-01-11T20:36:11;47.03;;;25.70;;
44446;SDS011;30152;52.066;5.358;2024-01-11T20:38:37;46.55;;;25.73;;
44446;SDS011;30152;52.066;5.358;2024-01-11T20:41:03;47.45;;;26.55;;
44446;SDS011;30152;52.066;5.358;2024-01-11T20:43:30;43.58;;;25.10;;
44446;SDS011;30152;52.066;5.358;2024-01-11T20:45:56;45.17;;;26.42;;
44446;SDS011;30152;52.066;5.358;2024-01-11T20:48:22;48.33;;;26.10;;
44446;SDS011;30152;52.066;5.358;2024-01-11T20:50:47;47.22;;;27.38;;
44446;SDS011;30152;52.066;5.358;2024-01-11T20:53:13;49.45;;;27.90;;
44446;SDS011;30152;52.066;5.358;2024-01-11T20:55:39;62.55;;;32.42;;
44446;SDS011;30152;52.066;5.358;2024-01-11T20:58:07;71.03;;;36.15;;
44446;SDS011;30152;52.066;5.358;2024-01-11T21:00:37;71.15;;;36.22;;
44446;SDS011;30152;52.066;5.358;2024-01-11T21:03:03;67.13;;;35.05;;
44446;SDS011;30152;52.066;5.358;2024-01-11T21:05:29;67.20;;;34.92;;
44446;SDS011;30152;52.066;5.358;2024-01-11T21:07:55;59.42;;;31.40;;
44446;SDS011;30152;52.066;5.358;2024-01-11T21:10:21;63.22;;;32.75;;
44446;SDS011;30152;52.066;5.358;2024-01-11T21:12:49;58.97;;;31.87;;
44446;SDS011;30152;52.066;5.358;2024-01-11T21:15:15;53.17;;;28.57;;
44446;SDS011;30152;52.066;5.358;2024-01-11T21:17:41;57.70;;;30.25;;
44446;SDS011;30152;52.066;5.358;2024-01-11T21:20:07;56.75;;;30.63;;
44446;SDS011;30152;52.066;5.358;2024-01-11T21:22:34;56.08;;;30.48;;
44446;SDS011;30152;52.066;5.358;2024-01-11T21:25:01;58.63;;;30.80;;
44446;SDS011;30152;52.066;5.358;2024-01-11T21:27:27;58.17;;;32.50;;
44446;SDS011;30152;52.066;5.358;2024-01-11T21:29:53;56.20;;;30.35;;
44446;SDS011;30152;52.066;5.358;2024-01-11T21:32:19;60.22;;;31.52;;
44446;SDS011;30152;52.066;5.358;2024-01-11T21:34:45;57.28;;;31.17;;
44446;SDS011;30152;52.066;5.358;2024-01-11T21:37:11;56.65;;;30.92;;
44446;SDS011;30152;52.066;5.358;2024-01-11T21:39:37;53.95;;;30.30;;
44446;SDS011;30152;52.066;5.358;2024-01-11T21:42:03;53.47;;;30.33;;
44446;SDS011;30152;52.066;5.358;2024-01-11T21:44:29;59.95;;;31.67;;
44446;SDS011;30152;52.066;5.358;2024-01-11T21:46:55;54.72;;;29.52;;
44446;SDS011;30152;52.066;5.358;2024-01-11T21:49:21;57.45;;;31.08;;
44446;SDS011;30152;52.066;5.358;2024-01-11T21:51:47;56.05;;;30.60;;
44446;SDS011;30152;52.066;5.358;2024-01-11T21:54:13;54.88;;;30.08;;
44446;SDS011;30152;52.066;5.358;2024-01-11T21:56:39;51.97;;;27.95;;
